createdAt,value
2022-12-28T00:00:34.347Z,97.81
2022-12-28T00:01:34.323Z,98.01
2022-12-28T00:02:34.262Z,97.60
2022-12-28T00:03:34.171Z,97.91
2022-12-28T00:04:34.114Z,97.81
2022-12-28T00:05:34.076Z,97.81
2022-12-28T00:06:34.027Z,97.81
2022-12-28T00:07:33.979Z,98.01
2022-12-28T00:08:33.941Z,97.91
2022-12-28T00:09:33.902Z,97.55
2022-12-28T00:11:08.869Z,97.71
2022-12-28T00:11:33.807Z,97.97
2022-12-28T00:12:33.761Z,97.60
2022-12-28T00:13:33.740Z,97.86
2022-12-28T00:14:33.677Z,97.97
2022-12-28T00:15:33.638Z,97.55
2022-12-28T00:16:33.701Z,97.66
2022-12-28T00:17:33.538Z,97.76
2022-12-28T00:18:33.512Z,97.66
2022-12-28T00:19:33.471Z,97.97
2022-12-28T00:20:33.415Z,97.91
2022-12-28T00:21:33.366Z,97.97
2022-12-28T00:22:33.323Z,97.76
2022-12-28T00:23:33.274Z,97.76
2022-12-28T00:24:33.249Z,97.55
2022-12-28T00:25:33.196Z,97.97
2022-12-28T00:26:33.168Z,97.76
2022-12-28T00:27:33.108Z,97.55
2022-12-28T00:28:33.064Z,97.45
2022-12-28T00:29:33.018Z,97.66
2022-12-28T00:30:32.984Z,98.18
2022-12-28T00:31:33.013Z,97.66
2022-12-28T00:32:32.889Z,97.97
2022-12-28T00:33:32.846Z,98.28
2022-12-28T00:34:32.797Z,97.66
2022-12-28T00:35:32.752Z,97.86
2022-12-28T00:37:08.433Z,98.43
2022-12-28T00:37:32.669Z,98.01
2022-12-28T00:38:32.645Z,98.22
2022-12-28T00:39:32.578Z,98.01
2022-12-28T00:40:32.534Z,98.01
2022-12-28T00:41:32.501Z,98.22
2022-12-28T00:42:32.445Z,98.43
2022-12-28T00:43:32.417Z,98.22
2022-12-28T00:44:32.359Z,98.32
2022-12-28T00:45:32.367Z,98.11
2022-12-28T00:46:32.267Z,98.22
2022-12-28T00:47:32.232Z,97.91
2022-12-28T00:48:32.203Z,98.32
2022-12-28T00:49:32.142Z,97.50
2022-12-28T00:50:32.099Z,97.60
2022-12-28T00:51:32.051Z,98.43
2022-12-28T00:52:32.004Z,98.01
2022-12-28T00:53:31.973Z,97.39
2022-12-28T00:54:31.932Z,98.43
2022-12-28T00:55:31.871Z,98.11
2022-12-28T00:56:31.855Z,98.01
2022-12-28T00:57:31.785Z,97.81
2022-12-28T00:58:31.751Z,98.69
2022-12-28T00:59:31.710Z,97.60
2022-12-28T01:00:31.657Z,97.66
2022-12-28T01:01:31.751Z,97.55
2022-12-28T01:02:31.638Z,97.34
2022-12-28T01:03:31.532Z,97.66
2022-12-28T01:04:31.476Z,97.08
2022-12-28T01:05:31.441Z,97.04
2022-12-28T01:06:31.387Z,97.76
2022-12-28T01:07:31.351Z,97.25
2022-12-28T01:08:31.296Z,97.45
2022-12-28T01:09:31.251Z,97.34
2022-12-28T01:10:31.237Z,97.66
2022-12-28T01:11:31.184Z,97.04
2022-12-28T01:12:37.737Z,96.62
2022-12-28T01:13:31.077Z,97.34
2022-12-28T01:14:31.072Z,96.73
2022-12-28T01:15:30.994Z,97.25
2022-12-28T01:16:30.996Z,97.81
2022-12-28T01:17:30.901Z,96.94
2022-12-28T01:18:30.856Z,97.04
2022-12-28T01:19:30.829Z,96.94
2022-12-28T01:20:30.774Z,97.81
2022-12-28T01:21:30.719Z,96.62
2022-12-28T01:22:30.681Z,97.08
2022-12-28T01:23:30.640Z,96.94
2022-12-28T01:24:30.591Z,97.04
2022-12-28T01:25:30.566Z,97.34
2022-12-28T01:26:30.512Z,96.77
2022-12-28T01:27:30.462Z,96.83
2022-12-28T01:28:30.418Z,96.52
2022-12-28T01:29:30.450Z,96.21
2022-12-28T01:30:30.350Z,96.21
2022-12-28T01:31:30.362Z,96.36
2022-12-28T01:32:30.238Z,96.83
2022-12-28T01:33:30.194Z,96.52
2022-12-28T01:34:30.149Z,96.73
2022-12-28T01:35:30.109Z,96.42
2022-12-28T01:36:30.067Z,96.31
2022-12-28T01:37:30.029Z,96.62
2022-12-28T01:38:29.973Z,96.73
2022-12-28T01:39:29.929Z,96.62
2022-12-28T01:40:29.902Z,96.42
2022-12-28T01:41:29.872Z,96.42
2022-12-28T01:42:29.806Z,96.83
2022-12-28T01:43:30.119Z,96.62
2022-12-28T01:44:29.710Z,96.42
2022-12-28T01:45:29.721Z,96.31
2022-12-28T01:46:29.624Z,96.62
2022-12-28T01:47:29.580Z,96.31
2022-12-28T01:48:29.537Z,97.34
2022-12-28T01:49:29.486Z,97.09
2022-12-28T01:50:29.464Z,96.48
2022-12-28T01:51:29.421Z,97.09
2022-12-28T01:52:29.356Z,96.37
2022-12-28T01:53:29.306Z,96.89
2022-12-28T01:54:29.269Z,97.20
2022-12-28T01:55:29.222Z,96.89
2022-12-28T01:56:29.195Z,96.69
2022-12-28T01:57:29.134Z,97.30
2022-12-28T01:58:29.104Z,96.23
2022-12-28T01:59:29.044Z,97.20
2022-12-28T02:00:29.004Z,96.99
2022-12-28T02:01:29.005Z,96.64
2022-12-28T02:02:29.107Z,97.05
2022-12-28T02:03:28.870Z,96.58
2022-12-28T02:04:28.835Z,96.53
2022-12-28T02:05:28.778Z,97.05
2022-12-28T02:06:28.740Z,97.16
2022-12-28T02:07:28.692Z,97.26
2022-12-28T02:08:28.651Z,97.26
2022-12-28T02:09:28.609Z,96.33
2022-12-28T02:10:43.684Z,96.95
2022-12-28T02:11:28.539Z,97.16
2022-12-28T02:12:28.473Z,97.16
2022-12-28T02:13:28.432Z,97.11
2022-12-28T02:14:28.386Z,97.11
2022-12-28T02:15:28.350Z,97.05
2022-12-28T02:16:28.388Z,97.31
2022-12-28T02:17:28.253Z,97.11
2022-12-28T02:18:28.211Z,96.49
2022-12-28T02:19:28.196Z,97.21
2022-12-28T02:20:28.127Z,96.91
2022-12-28T02:21:28.090Z,96.91
2022-12-28T02:22:28.039Z,96.70
2022-12-28T02:23:27.990Z,97.52
2022-12-28T02:24:27.949Z,96.59
2022-12-28T02:25:27.904Z,96.75
2022-12-28T02:26:27.861Z,97.17
2022-12-28T02:27:27.827Z,96.70
2022-12-28T02:28:27.775Z,96.70
2022-12-28T02:29:27.743Z,96.75
2022-12-28T02:30:27.736Z,96.86
2022-12-28T02:31:27.640Z,96.66
2022-12-28T02:32:27.603Z,96.75
2022-12-28T02:33:27.555Z,96.66
2022-12-28T02:34:27.519Z,96.75
2022-12-28T02:35:27.481Z,96.96
2022-12-28T02:36:27.428Z,96.71
2022-12-28T02:37:27.399Z,96.86
2022-12-28T02:38:27.339Z,97.17
2022-12-28T02:39:27.297Z,97.17
2022-12-28T02:40:27.252Z,96.75
2022-12-28T02:41:27.225Z,96.66
2022-12-28T02:42:27.162Z,96.71
2022-12-28T02:43:27.119Z,96.66
2022-12-28T02:44:27.082Z,96.50
2022-12-28T02:45:27.030Z,97.53
2022-12-28T02:46:27.025Z,96.71
2022-12-28T02:47:26.944Z,96.81
2022-12-28T02:48:26.905Z,96.61
2022-12-28T02:49:26.858Z,96.92
2022-12-28T02:50:26.816Z,96.71
2022-12-28T02:51:26.770Z,96.92
2022-12-28T02:52:26.746Z,96.81
2022-12-28T02:53:26.691Z,96.92
2022-12-28T02:54:26.646Z,96.71
2022-12-28T02:55:26.602Z,96.81
2022-12-28T02:56:26.554Z,96.92
2022-12-28T02:57:26.511Z,96.92
2022-12-28T02:58:26.477Z,96.81
2022-12-28T02:59:26.449Z,96.71
2022-12-28T03:00:26.385Z,96.92
2022-12-28T03:01:26.440Z,96.71
2022-12-28T03:02:26.535Z,96.92
2022-12-28T03:03:26.277Z,97.64
2022-12-28T03:04:26.229Z,97.08
2022-12-28T03:05:26.164Z,97.74
2022-12-28T03:06:30.197Z,96.56
2022-12-28T03:07:26.075Z,96.61
2022-12-28T03:08:26.047Z,96.56
2022-12-28T03:09:26.009Z,96.50
2022-12-28T03:10:25.959Z,96.50
2022-12-28T03:11:25.909Z,96.92
2022-12-28T03:12:25.869Z,97.23
2022-12-28T03:13:25.820Z,96.41
2022-12-28T03:14:25.775Z,96.77
2022-12-28T03:15:25.743Z,96.46
2022-12-28T03:16:25.707Z,97.08
2022-12-28T03:17:25.643Z,96.67
2022-12-28T03:18:25.607Z,97.08
2022-12-28T03:19:25.556Z,96.97
2022-12-28T03:20:25.519Z,96.88
2022-12-28T03:21:25.494Z,96.25
2022-12-28T03:22:25.430Z,96.36
2022-12-28T03:23:25.390Z,96.67
2022-12-28T03:24:25.344Z,96.88
2022-12-28T03:25:25.301Z,97.14
2022-12-28T03:26:25.258Z,97.39
2022-12-28T03:27:25.222Z,96.88
2022-12-28T03:28:25.167Z,96.72
2022-12-28T03:29:25.124Z,96.62
2022-12-28T03:30:25.086Z,96.42
2022-12-28T03:31:25.072Z,96.56
2022-12-28T03:32:25.005Z,97.34
2022-12-28T03:33:24.962Z,96.42
2022-12-28T03:34:24.920Z,96.52
2022-12-28T03:35:24.888Z,96.83
2022-12-28T03:36:24.825Z,96.46
2022-12-28T03:37:24.784Z,96.72
2022-12-28T03:38:24.751Z,97.34
2022-12-28T03:39:24.707Z,97.03
2022-12-28T03:40:24.652Z,96.42
2022-12-28T03:41:24.610Z,97.03
2022-12-28T03:42:24.576Z,97.44
2022-12-28T03:43:24.524Z,96.47
2022-12-28T03:44:24.489Z,97.34
2022-12-28T03:45:46.389Z,97.34
2022-12-28T03:46:24.481Z,96.62
2022-12-28T03:47:24.356Z,96.72
2022-12-28T03:48:24.305Z,97.14
2022-12-28T03:49:24.271Z,96.68
2022-12-28T03:50:24.221Z,96.68
2022-12-28T03:51:24.191Z,96.52
2022-12-28T03:52:24.133Z,96.72
2022-12-28T03:53:24.093Z,97.19
2022-12-28T03:54:24.057Z,96.78
2022-12-28T03:55:24.008Z,96.47
2022-12-28T03:56:23.961Z,96.47
2022-12-28T03:57:23.938Z,96.68
2022-12-28T03:58:23.879Z,96.99
2022-12-28T03:59:23.851Z,96.37
2022-12-28T04:00:23.793Z,96.62
2022-12-28T04:01:23.857Z,96.99
2022-12-28T04:02:23.795Z,96.68
2022-12-28T04:03:23.681Z,96.99
2022-12-28T04:04:23.617Z,97.09
2022-12-28T04:05:23.592Z,96.68
2022-12-28T04:06:23.532Z,97.50
2022-12-28T04:07:23.494Z,96.58
2022-12-28T04:08:23.446Z,97.44
2022-12-28T04:09:23.413Z,96.68
2022-12-28T04:10:23.361Z,97.30
2022-12-28T04:11:23.332Z,97.71
2022-12-28T04:12:23.281Z,96.72
2022-12-28T04:13:23.235Z,97.40
2022-12-28T04:14:23.192Z,97.40
2022-12-28T04:15:23.164Z,96.99
2022-12-28T04:16:23.165Z,96.27
2022-12-28T04:17:23.091Z,96.27
2022-12-28T04:18:23.027Z,96.58
2022-12-28T04:19:22.985Z,97.25
2022-12-28T04:20:22.931Z,96.99
2022-12-28T04:21:22.905Z,96.37
2022-12-28T04:22:22.848Z,96.68
2022-12-28T04:23:22.806Z,97.61
2022-12-28T04:24:22.764Z,97.19
2022-12-28T04:25:22.732Z,96.47
2022-12-28T04:26:22.677Z,96.64
2022-12-28T04:27:22.648Z,96.27
2022-12-28T04:28:22.589Z,97.45
2022-12-28T04:29:22.555Z,96.43
2022-12-28T04:30:22.517Z,97.15
2022-12-28T04:31:22.494Z,96.53
2022-12-28T04:32:22.420Z,97.15
2022-12-28T04:33:22.401Z,96.33
2022-12-28T04:34:22.345Z,97.30
2022-12-28T04:35:22.307Z,96.43
2022-12-28T04:36:22.260Z,96.64
2022-12-28T04:37:22.212Z,96.73
2022-12-28T04:38:22.167Z,97.25
2022-12-28T04:39:22.137Z,96.64
2022-12-28T04:40:22.080Z,96.43
2022-12-28T04:41:22.038Z,96.73
2022-12-28T04:42:22.014Z,96.73
2022-12-28T04:43:21.956Z,96.33
2022-12-28T04:44:21.924Z,96.64
2022-12-28T04:45:22.451Z,96.53
2022-12-28T04:46:21.866Z,97.56
2022-12-28T04:47:21.791Z,96.22
2022-12-28T04:48:21.743Z,97.15
2022-12-28T04:49:21.694Z,96.94
2022-12-28T04:50:21.662Z,96.43
2022-12-28T04:51:21.622Z,96.43
2022-12-28T04:52:21.562Z,96.43
2022-12-28T04:53:21.522Z,96.64
2022-12-28T04:54:21.479Z,97.36
2022-12-28T04:55:32.172Z,96.39
2022-12-28T04:56:21.417Z,96.59
2022-12-28T04:57:21.354Z,96.64
2022-12-28T04:58:21.308Z,96.28
2022-12-28T04:59:21.268Z,96.28
2022-12-28T05:00:21.224Z,97.20
2022-12-28T05:01:21.301Z,97.31
2022-12-28T05:02:21.229Z,97.20
2022-12-28T05:03:21.101Z,96.39
2022-12-28T05:04:21.055Z,97.20
2022-12-28T05:05:21.026Z,96.48
2022-12-28T05:06:20.967Z,96.39
2022-12-28T05:07:20.950Z,96.39
2022-12-28T05:08:20.880Z,97.06
2022-12-28T05:09:20.844Z,96.44
2022-12-28T05:10:20.800Z,96.55
2022-12-28T05:11:20.763Z,96.44
2022-12-28T05:12:20.715Z,96.39
2022-12-28T05:13:20.684Z,96.44
2022-12-28T05:14:20.626Z,96.65
2022-12-28T05:15:20.593Z,96.48
2022-12-28T05:16:29.482Z,96.48
2022-12-28T05:17:20.508Z,96.69
2022-12-28T05:18:20.456Z,97.47
2022-12-28T05:19:20.431Z,96.34
2022-12-28T05:20:20.398Z,96.59
2022-12-28T05:21:20.339Z,97.27
2022-12-28T05:22:20.287Z,96.14
2022-12-28T05:23:20.251Z,97.06
2022-12-28T05:24:20.202Z,96.23
2022-12-28T05:25:20.185Z,97.27
2022-12-28T05:26:20.122Z,97.12
2022-12-28T05:27:20.093Z,96.60
2022-12-28T05:28:20.043Z,96.60
2022-12-28T05:29:19.994Z,96.14
2022-12-28T05:30:19.971Z,96.70
2022-12-28T05:31:19.950Z,97.22
2022-12-28T05:32:19.860Z,96.50
2022-12-28T05:33:19.822Z,96.91
2022-12-28T05:34:19.778Z,97.22
2022-12-28T05:35:19.748Z,97.28
2022-12-28T05:36:19.690Z,96.60
2022-12-28T05:37:22.115Z,96.25
2022-12-28T05:38:19.611Z,96.25
2022-12-28T05:39:19.569Z,96.45
2022-12-28T05:40:19.524Z,97.07
2022-12-28T05:41:19.488Z,95.94
2022-12-28T05:42:19.446Z,96.00
2022-12-28T05:43:19.411Z,96.10
2022-12-28T05:44:19.355Z,95.79
2022-12-28T05:45:19.315Z,96.92
2022-12-28T05:46:19.426Z,96.20
2022-12-28T05:47:19.235Z,96.51
2022-12-28T05:48:19.286Z,96.00
2022-12-28T05:49:19.163Z,95.79
2022-12-28T05:50:19.101Z,95.90
2022-12-28T05:51:19.079Z,96.51
2022-12-28T05:52:19.012Z,96.00
2022-12-28T05:53:18.991Z,96.98
2022-12-28T05:54:18.932Z,96.78
2022-12-28T05:55:18.917Z,95.75
2022-12-28T05:56:18.871Z,95.86
2022-12-28T05:57:18.821Z,96.16
2022-12-28T05:58:18.789Z,95.95
2022-12-28T05:59:18.747Z,95.86
2022-12-28T06:00:18.679Z,95.86
2022-12-28T06:01:18.721Z,96.16
2022-12-28T06:02:24.425Z,96.06
2022-12-28T06:03:18.602Z,95.86
2022-12-28T06:04:18.513Z,96.06
2022-12-28T06:05:18.473Z,96.22
2022-12-28T06:06:18.423Z,96.12
2022-12-28T06:07:18.414Z,96.32
2022-12-28T06:08:22.665Z,96.22
2022-12-28T06:09:18.303Z,96.22
2022-12-28T06:10:18.261Z,96.53
2022-12-28T06:11:18.223Z,96.22
2022-12-28T06:12:18.178Z,96.42
2022-12-28T06:13:18.145Z,96.32
2022-12-28T06:14:18.095Z,95.61
2022-12-28T06:15:18.054Z,96.32
2022-12-28T06:16:18.095Z,96.01
2022-12-28T06:17:17.970Z,95.70
2022-12-28T06:18:17.917Z,96.32
2022-12-28T06:19:17.901Z,96.22
2022-12-28T06:20:17.834Z,96.32
2022-12-28T06:21:17.803Z,96.32
2022-12-28T06:22:17.753Z,96.32
2022-12-28T06:23:17.717Z,96.22
2022-12-28T06:24:17.680Z,96.22
2022-12-28T06:25:17.633Z,96.42
2022-12-28T06:26:17.602Z,96.12
2022-12-28T06:27:17.547Z,96.07
2022-12-28T06:28:17.503Z,96.32
2022-12-28T06:29:17.462Z,96.28
2022-12-28T06:30:17.425Z,96.22
2022-12-28T06:31:17.443Z,96.28
2022-12-28T06:32:17.336Z,96.22
2022-12-28T06:33:17.294Z,96.12
2022-12-28T06:34:17.256Z,95.87
2022-12-28T06:35:17.214Z,96.07
2022-12-28T06:36:20.365Z,96.28
2022-12-28T06:37:17.143Z,95.66
2022-12-28T06:38:17.081Z,95.91
2022-12-28T06:39:17.045Z,96.01
2022-12-28T06:40:17.002Z,96.01
2022-12-28T06:41:16.957Z,97.04
2022-12-28T06:42:16.932Z,96.01
2022-12-28T06:43:16.876Z,95.91
2022-12-28T06:44:16.829Z,95.87
2022-12-28T06:45:16.790Z,95.97
2022-12-28T06:46:16.778Z,96.01
2022-12-28T06:47:16.707Z,95.87
2022-12-28T06:48:16.675Z,96.12
2022-12-28T06:49:16.633Z,95.91
2022-12-28T06:50:16.580Z,95.81
2022-12-28T06:51:16.541Z,96.79
2022-12-28T06:52:16.495Z,96.73
2022-12-28T06:53:16.455Z,96.12
2022-12-28T06:54:16.409Z,96.12
2022-12-28T06:55:16.385Z,96.73
2022-12-28T06:56:16.325Z,96.63
2022-12-28T06:57:16.307Z,96.73
2022-12-28T06:58:16.260Z,96.73
2022-12-28T06:59:16.217Z,96.42
2022-12-28T07:00:16.163Z,96.42
2022-12-28T07:01:16.183Z,97.34
2022-12-28T07:02:16.226Z,96.83
2022-12-28T07:03:16.068Z,96.83
2022-12-28T07:04:16.004Z,96.73
2022-12-28T07:05:15.952Z,96.53
2022-12-28T07:06:15.916Z,96.42
2022-12-28T07:07:15.886Z,97.14
2022-12-28T07:08:15.825Z,96.32
2022-12-28T07:09:15.809Z,97.08
2022-12-28T07:10:15.739Z,96.22
2022-12-28T07:11:15.704Z,96.53
2022-12-28T07:12:15.655Z,96.83
2022-12-28T07:13:15.637Z,96.73
2022-12-28T07:14:15.575Z,96.83
2022-12-28T07:15:15.557Z,96.67
2022-12-28T07:16:15.545Z,96.63
2022-12-28T07:17:15.451Z,96.94
2022-12-28T07:18:15.405Z,96.73
2022-12-28T07:19:15.391Z,96.32
2022-12-28T07:20:15.320Z,96.63
2022-12-28T07:21:15.288Z,96.73
2022-12-28T07:22:15.249Z,96.63
2022-12-28T07:23:15.198Z,97.14
2022-12-28T07:24:15.172Z,97.14
2022-12-28T07:25:15.110Z,96.42
2022-12-28T07:26:15.068Z,97.14
2022-12-28T07:27:15.038Z,96.94
2022-12-28T07:28:14.986Z,96.42
2022-12-28T07:29:14.946Z,96.83
2022-12-28T07:30:14.944Z,97.45
2022-12-28T07:31:14.919Z,97.24
2022-12-28T07:32:14.819Z,96.73
2022-12-28T07:33:14.801Z,96.63
2022-12-28T07:34:14.786Z,97.09
2022-12-28T07:35:14.692Z,96.83
2022-12-28T07:36:14.649Z,96.32
2022-12-28T07:37:14.621Z,97.24
2022-12-28T07:38:20.958Z,96.73
2022-12-28T07:39:14.531Z,97.14
2022-12-28T07:40:14.479Z,97.24
2022-12-28T07:41:14.452Z,97.24
2022-12-28T07:42:14.400Z,96.94
2022-12-28T07:43:14.376Z,97.55
2022-12-28T07:44:14.325Z,97.14
2022-12-28T07:45:14.274Z,96.53
2022-12-28T07:46:14.348Z,97.24
2022-12-28T07:47:14.191Z,96.22
2022-12-28T07:48:14.153Z,97.24
2022-12-28T07:49:14.115Z,97.14
2022-12-28T07:50:14.068Z,96.94
2022-12-28T07:51:14.043Z,96.73
2022-12-28T07:52:13.985Z,96.94
2022-12-28T07:53:18.720Z,96.63
2022-12-28T07:54:13.915Z,97.14
2022-12-28T07:55:13.855Z,97.20
2022-12-28T07:56:13.828Z,96.89
2022-12-28T07:57:13.776Z,96.94
2022-12-28T07:58:13.766Z,97.14
2022-12-28T07:59:13.713Z,96.42
2022-12-28T08:00:13.652Z,97.40
2022-12-28T08:01:13.837Z,96.58
2022-12-28T08:02:13.695Z,97.09
2022-12-28T08:03:13.564Z,97.24
2022-12-28T08:04:13.495Z,96.38
2022-12-28T08:05:13.436Z,97.20
2022-12-28T08:06:13.410Z,97.20
2022-12-28T08:07:13.354Z,97.09
2022-12-28T08:08:13.317Z,97.20
2022-12-28T08:09:13.278Z,96.89
2022-12-28T08:10:13.263Z,97.09
2022-12-28T08:11:13.190Z,96.94
2022-12-28T08:12:13.147Z,96.38
2022-12-28T08:13:13.103Z,96.89
2022-12-28T08:14:13.093Z,97.09
2022-12-28T08:15:13.023Z,96.89
2022-12-28T08:16:13.023Z,97.30
2022-12-28T08:17:19.013Z,97.24
2022-12-28T08:18:12.898Z,96.99
2022-12-28T08:19:13.778Z,97.09
2022-12-28T08:20:12.815Z,97.20
2022-12-28T08:21:12.789Z,96.89
2022-12-28T08:22:12.743Z,96.99
2022-12-28T08:23:12.685Z,96.99
2022-12-28T08:24:12.660Z,96.58
2022-12-28T08:25:12.600Z,96.99
2022-12-28T08:26:12.562Z,96.79
2022-12-28T08:27:12.524Z,96.17
2022-12-28T08:28:12.479Z,96.58
2022-12-28T08:29:12.443Z,96.28
2022-12-28T08:30:12.407Z,96.99
2022-12-28T08:31:12.425Z,96.33
2022-12-28T08:32:12.315Z,96.89
2022-12-28T08:33:12.269Z,97.09
2022-12-28T08:34:12.230Z,97.20
2022-12-28T08:35:12.184Z,97.09
2022-12-28T08:36:12.162Z,97.25
2022-12-28T08:37:12.106Z,97.25
2022-12-28T08:38:12.064Z,96.89
2022-12-28T08:39:12.025Z,96.74
2022-12-28T08:40:11.980Z,96.95
2022-12-28T08:41:11.934Z,97.05
2022-12-28T08:42:11.916Z,96.54
2022-12-28T08:43:11.856Z,96.95
2022-12-28T08:44:11.811Z,96.95
2022-12-28T08:45:11.768Z,96.84
2022-12-28T08:46:12.011Z,97.15
2022-12-28T08:47:11.716Z,97.15
2022-12-28T08:48:11.657Z,96.95
2022-12-28T08:49:11.616Z,96.95
2022-12-28T08:50:12.356Z,96.84
2022-12-28T08:51:11.527Z,96.84
2022-12-28T08:52:11.498Z,96.95
2022-12-28T08:53:11.443Z,97.56
2022-12-28T08:54:11.407Z,97.15
2022-12-28T08:55:11.355Z,97.05
2022-12-28T08:56:11.320Z,97.25
2022-12-28T08:57:11.276Z,96.70
2022-12-28T08:58:11.248Z,97.15
2022-12-28T08:59:11.188Z,97.05
2022-12-28T09:00:11.151Z,96.91
2022-12-28T09:01:11.308Z,96.95
2022-12-28T09:02:11.124Z,96.29
2022-12-28T09:03:11.127Z,97.52
2022-12-28T09:04:11.018Z,97.11
2022-12-28T09:05:10.940Z,96.70
2022-12-28T09:06:10.902Z,97.00
2022-12-28T09:07:10.856Z,96.49
2022-12-28T09:08:10.827Z,96.19
2022-12-28T09:09:10.794Z,97.00
2022-12-28T09:10:10.796Z,96.49
2022-12-28T09:11:10.693Z,96.49
2022-12-28T09:12:10.667Z,96.91
2022-12-28T09:13:10.613Z,96.29
2022-12-28T09:14:10.581Z,96.59
2022-12-28T09:15:10.529Z,96.29
2022-12-28T09:16:10.561Z,97.11
2022-12-28T09:17:10.444Z,97.11
2022-12-28T09:18:10.413Z,96.59
2022-12-28T09:19:10.358Z,96.91
2022-12-28T09:20:10.392Z,97.00
2022-12-28T09:21:10.319Z,97.00
2022-12-28T09:22:10.241Z,96.80
2022-12-28T09:23:10.198Z,97.00
2022-12-28T09:24:10.155Z,96.70
2022-12-28T09:25:10.111Z,96.59
2022-12-28T09:26:10.101Z,96.75
2022-12-28T09:27:10.052Z,96.59
2022-12-28T09:28:09.991Z,97.27
2022-12-28T09:29:09.962Z,97.21
2022-12-28T09:30:09.910Z,96.66
2022-12-28T09:31:09.987Z,95.88
2022-12-28T09:32:09.827Z,96.86
2022-12-28T09:33:09.780Z,96.04
2022-12-28T09:35:09.725Z,96.45
2022-12-28T09:36:09.663Z,96.55
2022-12-28T09:37:09.656Z,96.45
2022-12-28T09:38:09.582Z,96.14
2022-12-28T09:39:09.567Z,96.30
2022-12-28T09:40:09.506Z,97.16
2022-12-28T09:41:09.453Z,96.66
2022-12-28T09:42:09.417Z,96.25
2022-12-28T09:43:09.386Z,96.25
2022-12-28T09:44:09.334Z,96.25
2022-12-28T09:45:09.288Z,97.06
2022-12-28T09:46:09.275Z,96.45
2022-12-28T09:47:09.209Z,96.00
2022-12-28T09:48:09.174Z,96.04
2022-12-28T09:49:09.142Z,96.30
2022-12-28T09:50:09.103Z,96.10
2022-12-28T09:51:09.049Z,96.20
2022-12-28T09:52:09.020Z,96.10
2022-12-28T09:53:08.959Z,96.10
2022-12-28T09:54:08.921Z,95.84
2022-12-28T09:55:08.906Z,96.20
2022-12-28T09:56:08.843Z,96.30
2022-12-28T09:57:08.800Z,95.73
2022-12-28T09:58:08.757Z,96.41
2022-12-28T09:59:08.712Z,95.79
2022-12-28T10:00:08.703Z,95.73
2022-12-28T10:01:08.693Z,96.00
2022-12-28T10:02:08.695Z,95.48
2022-12-28T10:03:08.587Z,96.20
2022-12-28T10:04:08.525Z,95.28
2022-12-28T10:05:08.468Z,95.79
2022-12-28T10:06:08.445Z,96.20
2022-12-28T10:07:08.389Z,96.20
2022-12-28T10:08:08.360Z,96.00
2022-12-28T10:09:08.310Z,95.89
2022-12-28T10:10:08.266Z,96.00
2022-12-28T10:11:08.227Z,95.59
2022-12-28T10:12:08.183Z,95.28
2022-12-28T10:13:21.706Z,96.20
2022-12-28T10:14:08.122Z,95.89
2022-12-28T10:15:08.057Z,95.28
2022-12-28T10:16:08.061Z,96.61
2022-12-28T10:17:07.986Z,95.59
2022-12-28T10:18:07.943Z,95.54
2022-12-28T10:19:07.914Z,95.28
2022-12-28T10:20:07.861Z,95.64
2022-12-28T10:21:07.827Z,96.05
2022-12-28T10:22:07.776Z,95.38
2022-12-28T10:23:07.731Z,96.67
2022-12-28T10:25:07.649Z,95.69
2022-12-28T10:26:07.617Z,95.28
2022-12-28T10:27:07.575Z,95.54
2022-12-28T10:28:07.530Z,95.54
2022-12-28T10:29:07.485Z,96.15
2022-12-28T10:30:07.470Z,95.54
2022-12-28T10:31:07.429Z,96.46
2022-12-28T10:32:07.374Z,95.03
2022-12-28T10:33:11.097Z,95.54
2022-12-28T10:34:07.292Z,95.64
2022-12-28T10:35:07.239Z,95.64
2022-12-28T10:36:07.217Z,95.34
2022-12-28T10:37:07.160Z,95.95
2022-12-28T10:38:07.127Z,95.54
2022-12-28T10:39:07.093Z,95.75
2022-12-28T10:40:07.048Z,95.95
2022-12-28T10:41:07.026Z,95.54
2022-12-28T10:42:06.963Z,95.64
2022-12-28T10:43:10.813Z,95.54
2022-12-28T10:44:37.787Z,95.64
2022-12-28T10:45:06.836Z,95.60
2022-12-28T10:46:06.793Z,95.39
2022-12-28T10:47:06.781Z,95.50
2022-12-28T10:48:06.715Z,95.80
2022-12-28T10:49:10.982Z,95.70
2022-12-28T10:51:06.583Z,94.98
2022-12-28T10:52:06.568Z,95.70
2022-12-28T10:53:06.537Z,95.70
2022-12-28T10:54:06.542Z,95.70
2022-12-28T10:55:07.910Z,95.60
2022-12-28T10:56:06.384Z,95.70
2022-12-28T10:57:06.362Z,95.70
2022-12-28T10:58:34.566Z,95.75
2022-12-28T10:59:06.274Z,95.54
2022-12-28T11:00:06.223Z,95.70
2022-12-28T11:01:06.772Z,95.60
2022-12-28T11:02:06.259Z,95.70
2022-12-28T11:03:06.149Z,95.50
2022-12-28T11:04:06.056Z,95.70
2022-12-28T11:05:06.033Z,95.50
2022-12-28T11:06:05.996Z,95.90
2022-12-28T11:07:05.938Z,95.60
2022-12-28T11:08:05.908Z,95.80
2022-12-28T11:09:05.858Z,95.60
2022-12-28T11:10:05.819Z,95.70
2022-12-28T11:11:05.774Z,95.70
2022-12-28T11:12:05.742Z,95.60
2022-12-28T11:13:05.696Z,95.80
2022-12-28T11:14:05.652Z,95.60
2022-12-28T11:15:05.609Z,95.70
2022-12-28T11:16:05.613Z,95.70
2022-12-28T11:17:14.584Z,95.80
2022-12-28T11:18:05.492Z,95.70
2022-12-28T11:19:05.445Z,95.50
2022-12-28T11:20:05.409Z,95.90
2022-12-28T11:21:05.366Z,95.70
2022-12-28T11:22:05.330Z,95.70
2022-12-28T11:23:05.292Z,95.60
2022-12-28T11:24:05.253Z,95.39
2022-12-28T11:25:05.210Z,95.90
2022-12-28T11:26:05.162Z,95.80
2022-12-28T11:27:05.123Z,95.29
2022-12-28T11:28:05.095Z,95.90
2022-12-28T11:29:05.041Z,95.85
2022-12-28T11:30:05.001Z,95.50
2022-12-28T11:31:04.955Z,95.60
2022-12-28T11:32:04.921Z,95.70
2022-12-28T11:33:04.886Z,95.70
2022-12-28T11:34:04.853Z,95.90
2022-12-28T11:35:04.792Z,96.01
2022-12-28T11:36:09.890Z,95.70
2022-12-28T11:37:04.714Z,95.70
2022-12-28T11:38:04.670Z,95.60
2022-12-28T11:39:04.644Z,95.39
2022-12-28T11:40:04.684Z,95.50
2022-12-28T11:41:04.546Z,95.09
2022-12-28T11:42:38.411Z,95.80
2022-12-28T11:43:04.473Z,95.80
2022-12-28T11:44:04.456Z,95.09
2022-12-28T11:45:04.396Z,95.09
2022-12-28T11:46:04.394Z,96.42
2022-12-28T11:47:04.309Z,96.42
2022-12-28T11:48:04.269Z,95.80
2022-12-28T11:49:04.235Z,95.60
2022-12-28T11:50:04.184Z,95.39
2022-12-28T11:51:04.159Z,95.09
2022-12-28T11:52:04.111Z,95.60
2022-12-28T11:53:07.743Z,95.75
2022-12-28T11:54:04.019Z,95.39
2022-12-28T11:55:03.980Z,94.89
2022-12-28T11:56:03.944Z,95.54
2022-12-28T11:57:03.910Z,95.85
2022-12-28T11:58:03.860Z,95.60
2022-12-28T11:59:03.815Z,95.19
2022-12-28T12:00:03.779Z,94.78
2022-12-28T12:01:03.800Z,95.19
2022-12-28T12:02:03.749Z,95.19
2022-12-28T12:03:03.770Z,94.89
2022-12-28T12:04:03.644Z,94.89
2022-12-28T12:05:03.601Z,94.07
2022-12-28T12:06:03.527Z,94.98
2022-12-28T12:07:03.497Z,94.27
2022-12-28T12:08:03.454Z,94.48
2022-12-28T12:09:03.415Z,94.78
2022-12-28T12:10:03.370Z,94.58
2022-12-28T12:11:03.329Z,94.78
2022-12-28T12:12:03.307Z,94.58
2022-12-28T12:13:03.253Z,94.58
2022-12-28T12:14:03.204Z,94.27
2022-12-28T12:15:03.175Z,94.58
2022-12-28T12:16:03.120Z,94.68
2022-12-28T12:17:03.393Z,94.78
2022-12-28T12:18:03.052Z,94.37
2022-12-28T12:19:03.004Z,94.27
2022-12-28T12:20:02.961Z,94.73
2022-12-28T12:21:02.935Z,94.17
2022-12-28T12:22:02.894Z,94.27
2022-12-28T12:23:02.845Z,94.07
2022-12-28T12:24:02.805Z,94.11
2022-12-28T12:25:02.759Z,93.66
2022-12-28T12:26:02.713Z,93.66
2022-12-28T12:27:06.068Z,93.91
2022-12-28T12:28:02.644Z,93.80
2022-12-28T12:29:02.633Z,93.55
2022-12-28T12:30:02.566Z,94.01
2022-12-28T12:31:02.572Z,93.45
2022-12-28T12:32:02.481Z,93.76
2022-12-28T12:33:02.431Z,93.96
2022-12-28T12:34:02.386Z,93.15
2022-12-28T12:35:02.367Z,93.66
2022-12-28T12:36:02.330Z,93.35
2022-12-28T12:37:02.267Z,93.09
2022-12-28T12:38:02.223Z,92.84
2022-12-28T12:39:02.190Z,93.35
2022-12-28T12:40:02.148Z,92.74
2022-12-28T12:41:02.124Z,92.64
2022-12-28T12:42:02.065Z,93.25
2022-12-28T12:43:02.027Z,92.64
2022-12-28T12:44:01.983Z,92.74
2022-12-28T12:45:01.944Z,92.54
2022-12-28T12:46:01.965Z,91.52
2022-12-28T12:47:05.621Z,92.33
2022-12-28T12:48:01.813Z,92.37
2022-12-28T12:49:01.777Z,92.02
2022-12-28T12:50:01.769Z,92.02
2022-12-28T12:51:01.694Z,91.52
2022-12-28T12:52:01.651Z,91.41
2022-12-28T12:53:01.625Z,91.52
2022-12-28T12:54:01.584Z,91.00
2022-12-28T12:55:01.541Z,90.02